createdAt,value
2022-11-29T00:02:20.241Z,101155.40
2022-11-29T00:07:23.351Z,101156.60
2022-11-29T00:12:26.312Z,101152.00
2022-11-29T00:17:29.217Z,101155.40
2022-11-29T00:22:32.147Z,101151.40
2022-11-29T00:27:35.166Z,101156.80
2022-11-29T00:32:38.162Z,101149.20
2022-11-29T00:37:41.063Z,101152.60
2022-11-29T00:42:44.034Z,101155.60
2022-11-29T00:47:46.972Z,101161.00
2022-11-29T00:52:50.084Z,101159.00
2022-11-29T00:57:52.998Z,101157.80
2022-11-29T01:02:56.139Z,101154.00
2022-11-29T01:07:59.174Z,101158.40
2022-11-29T01:13:02.241Z,101155.00
2022-11-29T01:18:05.464Z,101152.60
2022-11-29T01:23:08.449Z,101145.00
2022-11-29T01:28:11.372Z,101141.40
2022-11-29T01:33:14.320Z,101141.80
2022-11-29T01:38:17.809Z,101144.40
2022-11-29T01:43:21.211Z,101138.80
2022-11-29T01:48:32.825Z,101134.20
2022-11-29T01:53:35.825Z,101136.40
2022-11-29T01:58:39.231Z,101134.60
2022-11-29T02:03:42.564Z,101133.20
2022-11-29T02:08:45.489Z,101126.60
2022-11-29T02:14:25.970Z,101137.80
2022-11-29T02:19:59.236Z,101135.60
2022-11-29T02:25:29.492Z,101130.00
2022-11-29T02:31:03.345Z,101128.80
2022-11-29T02:36:26.582Z,101134.80
2022-11-29T02:42:33.337Z,101135.60
2022-11-29T02:48:26.948Z,101136.60
2022-11-29T02:53:45.758Z,101138.40
2022-11-29T02:59:36.514Z,101142.40
2022-11-29T03:05:07.142Z,101143.40
2022-11-29T03:10:53.401Z,101139.80
2022-11-29T03:16:07.851Z,101143.80
2022-11-29T03:21:19.882Z,101152.20
2022-11-29T03:27:00.937Z,101151.60
2022-11-29T03:32:16.222Z,101147.20
2022-11-29T03:37:30.793Z,101147.40
2022-11-29T03:43:01.931Z,101149.40
2022-11-29T03:48:07.930Z,101159.20
2022-11-29T03:53:39.292Z,101157.40
2022-11-29T03:59:06.979Z,101157.40
2022-11-29T04:05:06.596Z,101162.40
2022-11-29T04:11:04.841Z,101162.80
2022-11-29T04:17:10.549Z,101166.00
2022-11-29T04:22:19.177Z,101165.20
2022-11-29T04:27:41.720Z,101160.00
2022-11-29T04:33:21.615Z,101172.00
2022-11-29T04:39:02.874Z,101177.40
2022-11-29T04:44:25.336Z,101173.80
2022-11-29T04:49:39.586Z,101181.60
2022-11-29T04:55:10.802Z,101178.80
2022-11-29T05:00:20.156Z,101184.80
2022-11-29T05:05:46.976Z,101188.80
2022-11-29T05:11:26.712Z,101190.40
2022-11-29T05:16:54.212Z,101195.40
2022-11-29T05:22:48.296Z,101199.80
2022-11-29T05:28:09.858Z,101200.60
2022-11-29T05:33:36.424Z,101198.80
2022-11-29T05:39:00.098Z,101203.00
2022-11-29T05:44:22.565Z,101206.40
2022-11-29T05:50:04.744Z,101202.80
2022-11-29T05:55:38.050Z,101205.40
2022-11-29T06:00:51.660Z,101208.60
2022-11-29T06:06:08.494Z,101205.40
2022-11-29T06:11:30.770Z,101207.40
2022-11-29T06:17:34.350Z,101213.80
2022-11-29T06:22:47.861Z,101218.20
2022-11-29T06:28:23.089Z,101217.80
2022-11-29T06:33:58.779Z,101237.00
2022-11-29T06:39:02.247Z,101247.80
2022-11-29T06:44:06.185Z,101250.00
2022-11-29T06:49:18.828Z,101262.80
2022-11-29T06:55:03.511Z,101262.00
2022-11-29T07:00:18.312Z,101261.00
2022-11-29T07:05:36.122Z,101262.00
2022-11-29T07:10:41.994Z,101261.80
2022-11-29T07:16:00.076Z,101269.40
2022-11-29T07:21:03.080Z,101260.40
2022-11-29T07:26:33.145Z,101266.20
2022-11-29T07:31:54.024Z,101258.40
2022-11-29T07:37:34.726Z,101265.00
2022-11-29T07:42:46.872Z,101267.40
2022-11-29T07:47:50.354Z,101276.20
2022-11-29T07:52:55.503Z,101275.40
2022-11-29T07:57:58.468Z,101278.80
2022-11-29T08:03:01.531Z,101282.60
2022-11-29T08:08:06.330Z,101276.80
2022-11-29T08:13:09.550Z,101285.40
2022-11-29T08:18:13.925Z,101283.80
2022-11-29T08:23:16.830Z,101285.40
2022-11-29T08:28:19.722Z,101282.20
2022-11-29T08:33:22.645Z,101289.60
2022-11-29T08:38:25.584Z,101290.80
2022-11-29T08:43:30.584Z,101296.20
2022-11-29T08:48:33.980Z,101291.40
2022-11-29T08:53:43.275Z,101298.80
2022-11-29T08:58:46.467Z,101294.80
2022-11-29T09:04:07.167Z,101296.20
2022-11-29T09:09:10.169Z,101301.60
2022-11-29T09:14:17.178Z,101301.00
2022-11-29T09:19:20.118Z,101297.00
2022-11-29T09:24:23.041Z,101288.20
2022-11-29T09:29:26.086Z,101296.20
2022-11-29T09:34:29.050Z,101296.20
2022-11-29T09:39:32.119Z,101289.20
2022-11-29T09:44:54.107Z,101282.60
2022-11-29T09:50:21.379Z,101287.20
2022-11-29T09:55:43.132Z,101283.80
2022-11-29T10:00:52.206Z,101281.00
2022-11-29T10:06:08.441Z,101283.80
2022-11-29T10:11:33.766Z,101287.20
2022-11-29T10:16:44.535Z,101289.60
2022-11-29T10:22:00.861Z,101288.20
2022-11-29T10:27:18.565Z,101292.40
2022-11-29T10:32:25.518Z,101287.40
2022-11-29T10:37:32.796Z,101291.20
2022-11-29T10:42:53.335Z,101291.60
2022-11-29T10:48:07.883Z,101294.60
2022-11-29T10:53:32.677Z,101299.60
2022-11-29T10:58:36.405Z,101304.40
2022-11-29T11:03:54.235Z,101302.20
2022-11-29T11:09:26.785Z,101308.20
2022-11-29T11:14:38.851Z,101311.80
2022-11-29T11:19:42.470Z,101310.60
2022-11-29T11:24:45.642Z,101312.40
2022-11-29T11:29:52.926Z,101316.40
2022-11-29T11:35:00.968Z,101314.40
2022-11-29T11:40:29.449Z,101314.00
2022-11-29T11:45:36.770Z,101310.00
2022-11-29T11:50:49.887Z,101308.60
2022-11-29T11:56:07.029Z,101310.40
2022-11-29T12:01:12.678Z,101312.60
2022-11-29T12:06:43.919Z,101319.00
2022-11-29T12:12:07.053Z,101324.00
2022-11-29T12:17:37.352Z,101322.60
2022-11-29T12:23:11.577Z,101329.00
2022-11-29T12:28:20.785Z,101318.00
2022-11-29T12:34:12.007Z,101326.20
2022-11-29T12:40:04.050Z,101330.40
2022-11-29T12:45:38.076Z,101327.20
2022-11-29T12:50:53.096Z,101333.60
2022-11-29T12:56:21.498Z,101321.80
2022-11-29T13:01:36.354Z,101328.20
2022-11-29T13:07:22.604Z,101332.60
2022-11-29T13:13:27.507Z,101336.60
2022-11-29T13:18:39.414Z,101342.60
2022-11-29T13:24:08.228Z,101344.20
2022-11-29T13:29:17.955Z,101355.40
2022-11-29T13:34:41.720Z,101362.20
2022-11-29T13:40:19.232Z,101365.80
2022-11-29T13:45:26.543Z,101366.00
2022-11-29T13:50:42.603Z,101362.80
2022-11-29T13:56:00.829Z,101370.60
2022-11-29T14:01:09.951Z,101368.60
2022-11-29T14:06:31.541Z,101377.60
2022-11-29T14:11:48.998Z,101376.40
2022-11-29T14:17:01.918Z,101380.40
2022-11-29T14:22:19.138Z,101378.60
2022-11-29T14:27:22.001Z,101378.20
2022-11-29T14:33:03.329Z,101385.60
2022-11-29T14:38:36.284Z,101384.20
2022-11-29T14:43:43.297Z,101387.80
2022-11-29T14:48:55.416Z,101385.40
2022-11-29T14:54:24.974Z,101385.20
2022-11-29T14:59:48.803Z,101382.60
2022-11-29T15:04:57.108Z,101386.40
2022-11-29T15:10:05.450Z,101392.80
2022-11-29T15:15:46.510Z,101396.80
2022-11-29T15:21:13.775Z,101400.00
2022-11-29T15:26:22.394Z,101392.20
2022-11-29T15:31:26.671Z,101393.20
2022-11-29T15:36:30.669Z,101397.20
2022-11-29T15:41:35.722Z,101399.40
2022-11-29T15:46:39.242Z,101402.60
2022-11-29T15:51:42.815Z,101408.40
2022-11-29T15:57:06.274Z,101405.40
2022-11-29T16:02:25.227Z,101409.00
2022-11-29T16:07:34.425Z,101416.60
2022-11-29T16:12:57.822Z,101421.00
2022-11-29T16:18:25.660Z,101411.80
2022-11-29T16:23:38.918Z,101417.00
2022-11-29T16:28:45.932Z,101421.00
2022-11-29T16:33:52.499Z,101425.80
2022-11-29T16:39:08.213Z,101431.40
2022-11-29T16:44:40.460Z,101432.80
2022-11-29T16:49:45.040Z,101427.40
2022-11-29T16:54:49.433Z,101436.20
2022-11-29T16:59:52.545Z,101441.00
2022-11-29T17:04:59.021Z,101440.20
2022-11-29T17:10:04.408Z,101443.00
2022-11-29T17:15:08.413Z,101447.40
2022-11-29T17:20:13.235Z,101443.40
2022-11-29T17:25:16.784Z,101448.60
2022-11-29T17:30:22.598Z,101456.20
2022-11-29T17:35:25.586Z,101456.00
2022-11-29T17:40:28.643Z,101457.00
2022-11-29T17:45:31.975Z,101459.40
2022-11-29T17:50:38.720Z,101461.80
2022-11-29T17:55:42.037Z,101459.00
2022-11-29T18:00:45.808Z,101457.20
2022-11-29T18:05:48.862Z,101467.00
2022-11-29T18:11:05.766Z,101470.60
2022-11-29T18:16:20.060Z,101467.60
2022-11-29T18:21:24.861Z,101470.80
2022-11-29T18:26:31.215Z,101472.00
2022-11-29T18:31:38.208Z,101470.80
2022-11-29T18:36:48.445Z,101473.60
2022-11-29T18:41:52.202Z,101474.80
2022-11-29T18:46:57.200Z,101473.80
2022-11-29T18:52:00.097Z,101470.60
2022-11-29T18:57:03.228Z,101475.20
2022-11-29T19:02:06.261Z,101473.40
2022-11-29T19:07:09.285Z,101475.80
2022-11-29T19:12:12.274Z,101472.60
2022-11-29T19:17:15.287Z,101476.60
2022-11-29T19:22:18.366Z,101474.40
2022-11-29T19:27:22.504Z,101481.00
2022-11-29T19:32:25.515Z,101483.40
2022-11-29T19:37:28.506Z,101484.80
2022-11-29T19:42:31.624Z,101488.40
2022-11-29T19:47:35.087Z,101492.40
2022-11-29T19:52:38.638Z,101494.20
2022-11-29T19:57:41.720Z,101499.40
2022-11-29T20:02:47.246Z,101503.60
2022-11-29T20:07:50.377Z,101503.60
2022-11-29T20:12:54.552Z,101508.40
2022-11-29T20:17:57.382Z,101511.20
2022-11-29T20:23:00.413Z,101508.20
2022-11-29T20:28:04.463Z,101506.40
2022-11-29T20:33:07.599Z,101515.00
2022-11-29T20:38:55.913Z,101523.40
2022-11-29T20:44:02.643Z,101523.20
2022-11-29T20:49:06.759Z,101521.00
2022-11-29T20:54:12.043Z,101522.60
2022-11-29T20:59:14.946Z,101516.00
2022-11-29T21:04:22.859Z,101522.00
2022-11-29T21:09:28.457Z,101520.60
2022-11-29T21:14:31.983Z,101528.60
2022-11-29T21:19:35.801Z,101528.80
2022-11-29T21:24:47.040Z,101528.80
2022-11-29T21:29:51.594Z,101530.60
2022-11-29T21:34:54.443Z,101538.20
2022-11-29T21:39:57.718Z,101536.60
2022-11-29T21:45:00.681Z,101543.00
2022-11-29T21:50:04.066Z,101544.20
2022-11-29T21:55:07.461Z,101546.60
2022-11-29T22:00:11.030Z,101555.40
2022-11-29T22:05:14.006Z,101553.40
2022-11-29T22:10:17.072Z,101553.00
2022-11-29T22:15:24.447Z,101559.80
2022-11-29T22:20:28.143Z,101552.80
2022-11-29T22:25:31.088Z,101556.40
2022-11-29T22:30:35.956Z,101553.80
2022-11-29T22:35:44.153Z,101554.80
2022-11-29T22:40:47.173Z,101558.20
2022-11-29T22:45:50.065Z,101562.80
2022-11-29T22:50:52.966Z,101564.00
2022-11-29T22:56:01.231Z,101557.20
2022-11-29T23:01:15.858Z,101556.80
2022-11-29T23:06:23.608Z,101558.40
2022-11-29T23:11:29.775Z,101558.80
2022-11-29T23:16:33.591Z,101556.80
2022-11-29T23:21:40.098Z,101561.20
2022-11-29T23:26:47.589Z,101564.60
2022-11-29T23:31:50.612Z,101562.40
2022-11-29T23:36:53.694Z,101551.60
2022-11-29T23:41:56.669Z,101558.40
2022-11-29T23:46:59.629Z,101554.60
2022-11-29T23:52:02.584Z,101562.60
2022-11-29T23:57:06.016Z,101560.00
